createdAt,value
2023-06-01T00:01:02.454Z,25.60
2023-06-01T00:03:30.811Z,25.60
2023-06-01T00:05:57.791Z,25.60
2023-06-01T00:08:24.543Z,25.60
2023-06-01T00:10:51.518Z,25.50
2023-06-01T00:13:18.367Z,25.50
2023-06-01T00:15:45.177Z,25.60
2023-06-01T00:18:14.018Z,25.50
2023-06-01T00:20:40.926Z,25.40
2023-06-01T00:23:09.788Z,25.50
2023-06-01T00:25:36.552Z,25.50
2023-06-01T00:28:03.614Z,25.50
2023-06-01T00:30:30.932Z,25.40
2023-06-01T00:32:57.710Z,25.40
2023-06-01T00:35:24.534Z,25.40
2023-06-01T00:37:51.328Z,25.40
2023-06-01T00:40:18.223Z,25.50
2023-06-01T00:42:44.993Z,25.40
2023-06-01T00:45:11.943Z,25.40
2023-06-01T00:47:42.734Z,25.40
2023-06-01T00:50:11.466Z,25.40
2023-06-01T00:52:39.209Z,25.40
2023-06-01T00:55:07.667Z,25.40
2023-06-01T00:57:35.934Z,25.40
2023-06-01T01:00:14.018Z,25.60
2023-06-01T01:02:42.193Z,25.40
2023-06-01T01:05:10.716Z,25.40
2023-06-01T01:07:51.856Z,25.40
2023-06-01T01:10:23.605Z,25.40
2023-06-01T01:13:03.487Z,25.40
2023-06-01T01:15:52.487Z,25.30
2023-06-01T01:18:41.903Z,25.40
2023-06-01T01:21:29.627Z,25.30
2023-06-01T01:24:08.835Z,25.30
2023-06-01T01:26:43.173Z,25.40
2023-06-01T01:29:15.804Z,25.20
2023-06-01T01:31:43.055Z,25.20
2023-06-01T01:34:10.461Z,25.30
2023-06-01T01:36:37.700Z,25.30
2023-06-01T01:39:04.727Z,25.20
2023-06-01T01:41:31.408Z,25.20
2023-06-01T01:44:00.126Z,25.20
2023-06-01T01:46:29.750Z,25.20
2023-06-01T01:49:02.833Z,25.20
2023-06-01T01:51:58.713Z,25.20
2023-06-01T01:54:26.191Z,25.20
2023-06-01T01:56:56.758Z,25.20
2023-06-01T01:59:24.579Z,25.20
2023-06-01T02:01:51.680Z,25.20
2023-06-01T02:04:18.426Z,25.10
2023-06-01T02:06:45.492Z,25.20
2023-06-01T02:09:12.339Z,25.20
2023-06-01T02:11:39.187Z,25.20
2023-06-01T02:14:06.078Z,25.20
2023-06-01T02:16:32.933Z,25.20
2023-06-01T02:18:59.916Z,25.10
2023-06-01T02:21:27.294Z,25.20
2023-06-01T02:23:53.997Z,25.20
2023-06-01T02:26:20.853Z,25.20
2023-06-01T02:28:47.674Z,25.20
2023-06-01T02:31:17.888Z,25.20
2023-06-01T02:33:44.713Z,25.20
2023-06-01T02:36:11.484Z,25.10
2023-06-01T02:38:38.188Z,25.00
2023-06-01T02:41:05.126Z,25.20
2023-06-01T02:43:37.811Z,25.10
2023-06-01T02:46:04.630Z,25.10
2023-06-01T02:48:31.640Z,25.00
2023-06-01T02:50:58.401Z,25.10
2023-06-01T02:53:28.170Z,25.00
2023-06-01T02:55:55.309Z,25.10
2023-06-01T02:58:22.245Z,25.00
2023-06-01T03:00:48.940Z,25.20
2023-06-01T03:03:15.634Z,25.10
2023-06-01T03:05:44.138Z,25.00
2023-06-01T03:08:11.465Z,25.10
2023-06-01T03:10:38.140Z,25.00
2023-06-01T03:13:04.867Z,25.00
2023-06-01T03:15:31.526Z,25.00
2023-06-01T03:17:58.305Z,25.00
2023-06-01T03:20:25.129Z,25.00
2023-06-01T03:22:51.838Z,25.00
2023-06-01T03:25:18.725Z,25.10
2023-06-01T03:27:45.781Z,25.00
2023-06-01T03:30:13.008Z,24.90
2023-06-01T03:32:44.604Z,25.00
2023-06-01T03:35:12.928Z,25.00
2023-06-01T03:37:41.789Z,25.00
2023-06-01T03:40:13.004Z,25.00
2023-06-01T03:42:41.694Z,25.00
2023-06-01T03:45:09.044Z,25.00
2023-06-01T03:47:35.807Z,24.90
2023-06-01T03:50:04.677Z,24.90
2023-06-01T03:52:31.547Z,24.90
2023-06-01T03:55:01.465Z,24.90
2023-06-01T03:57:28.426Z,24.90
2023-06-01T03:59:55.208Z,24.80
2023-06-01T04:02:23.169Z,24.90
2023-06-01T04:04:50.021Z,24.80
2023-06-01T04:07:19.735Z,24.80
2023-06-01T04:09:49.135Z,24.80
2023-06-01T04:12:16.561Z,24.80
2023-06-01T04:14:43.342Z,24.90
2023-06-01T04:17:10.122Z,24.80
2023-06-01T04:19:36.976Z,24.80
2023-06-01T04:22:04.021Z,24.70
2023-06-01T04:24:31.194Z,24.80
2023-06-01T04:27:00.017Z,24.80
2023-06-01T04:29:26.752Z,24.80
2023-06-01T04:31:56.040Z,24.80
2023-06-01T04:34:24.391Z,24.80
2023-06-01T04:36:52.325Z,24.80
2023-06-01T04:39:19.115Z,24.80
2023-06-01T04:41:45.975Z,24.80
2023-06-01T04:44:14.137Z,24.80
2023-06-01T04:46:42.211Z,24.80
2023-06-01T04:49:13.035Z,24.80
2023-06-01T04:51:41.247Z,24.70
2023-06-01T04:54:08.659Z,24.90
2023-06-01T04:56:35.619Z,24.80
2023-06-01T04:59:02.508Z,24.70
2023-06-01T05:01:30.743Z,24.70
2023-06-01T05:03:58.151Z,24.80
2023-06-01T05:06:26.633Z,24.80
2023-06-01T05:08:53.354Z,24.80
2023-06-01T05:11:20.252Z,24.90
2023-06-01T05:13:47.013Z,25.10
2023-06-01T05:16:13.842Z,25.00
2023-06-01T05:18:41.348Z,25.10
2023-06-01T05:21:08.837Z,25.20
2023-06-01T05:23:35.710Z,25.20
2023-06-01T05:26:06.942Z,25.20
2023-06-01T05:28:35.782Z,25.10
2023-06-01T05:31:03.930Z,25.20
2023-06-01T05:33:31.160Z,25.30
2023-06-01T05:35:58.011Z,25.40
2023-06-01T05:38:24.765Z,25.40
2023-06-01T05:40:51.895Z,25.40
2023-06-01T05:43:18.659Z,25.60
2023-06-01T05:45:45.391Z,25.40
2023-06-01T05:48:14.738Z,25.30
2023-06-01T05:50:43.092Z,25.30
2023-06-01T05:53:11.553Z,25.30
2023-06-01T05:55:39.910Z,25.40
2023-06-01T05:58:07.086Z,25.30
2023-06-01T06:00:36.748Z,25.20
2023-06-01T06:03:06.957Z,25.20
2023-06-01T06:05:33.907Z,25.20
2023-06-01T06:08:00.763Z,25.20
2023-06-01T06:10:27.575Z,25.20
2023-06-01T06:12:54.726Z,25.30
2023-06-01T06:15:21.700Z,25.40
2023-06-01T06:17:48.820Z,25.40
2023-06-01T06:20:16.430Z,25.40
2023-06-01T06:22:43.521Z,25.50
2023-06-01T06:25:12.711Z,25.50
2023-06-01T06:27:39.831Z,25.40
2023-06-01T06:30:08.114Z,25.50
2023-06-01T06:32:37.190Z,25.40
2023-06-01T06:35:06.742Z,25.40
2023-06-01T06:37:33.809Z,25.30
2023-06-01T06:40:00.577Z,25.40
2023-06-01T06:42:28.898Z,25.40
2023-06-01T06:44:58.508Z,25.40
2023-06-01T06:47:26.162Z,25.40
2023-06-01T06:49:53.631Z,25.40
2023-06-01T06:52:20.785Z,25.40
2023-06-01T06:54:47.927Z,25.30
2023-06-01T06:57:14.992Z,25.40
2023-06-01T06:59:41.815Z,25.40
2023-06-01T07:02:08.616Z,25.40
2023-06-01T07:04:35.333Z,25.40
2023-06-01T07:07:04.756Z,25.40
2023-06-01T07:09:31.703Z,25.40
2023-06-01T07:11:58.961Z,25.40
2023-06-01T07:14:26.068Z,25.40
2023-06-01T07:16:53.261Z,25.40
2023-06-01T07:19:20.587Z,25.30
2023-06-01T07:21:48.096Z,25.30
2023-06-01T07:24:20.465Z,25.40
2023-06-01T07:26:47.846Z,25.40
2023-06-01T07:29:16.618Z,25.40
2023-06-01T07:31:43.733Z,25.30
2023-06-01T07:34:11.091Z,25.40
2023-06-01T07:36:38.632Z,25.30
2023-06-01T07:39:10.240Z,25.20
2023-06-01T07:41:36.998Z,25.10
2023-06-01T07:44:03.868Z,24.90
2023-06-01T07:46:30.910Z,24.80
2023-06-01T07:48:57.988Z,24.80
2023-06-01T07:51:24.723Z,24.90
2023-06-01T07:53:51.428Z,24.90
2023-06-01T07:56:18.444Z,25.10
2023-06-01T07:58:45.423Z,25.20
2023-06-01T08:01:12.124Z,25.30
2023-06-01T08:03:44.400Z,25.20
2023-06-01T08:06:12.801Z,25.20
2023-06-01T08:08:40.208Z,25.20
2023-06-01T08:11:07.170Z,25.30
2023-06-01T08:13:37.138Z,25.20
2023-06-01T08:16:05.104Z,25.20
2023-06-01T08:18:32.095Z,25.30
2023-06-01T08:20:58.908Z,25.20
2023-06-01T08:23:25.643Z,25.30
2023-06-01T08:25:52.393Z,25.20
2023-06-01T08:28:19.144Z,25.30
2023-06-01T08:30:46.195Z,25.10
2023-06-01T08:33:12.860Z,25.20
2023-06-01T08:38:11.331Z,25.30
2023-06-01T08:40:38.369Z,25.20
2023-06-01T08:43:20.097Z,25.30
2023-06-01T08:45:50.459Z,25.30
2023-06-01T08:48:20.083Z,25.40
2023-06-01T08:50:51.181Z,25.30
2023-06-01T08:53:22.506Z,25.20
2023-06-01T08:55:53.659Z,25.30
2023-06-01T08:58:20.411Z,25.40
2023-06-01T09:00:51.565Z,25.20
2023-06-01T09:03:18.562Z,25.30
2023-06-01T09:05:45.356Z,25.30
2023-06-01T09:08:13.076Z,25.20
2023-06-01T09:10:39.915Z,25.40
2023-06-01T09:13:06.820Z,25.30
2023-06-01T09:15:33.628Z,25.20
2023-06-01T09:18:09.015Z,25.20
2023-06-01T09:20:35.962Z,25.40
2023-06-01T09:23:02.805Z,25.30
2023-06-01T09:25:32.238Z,25.30
2023-06-01T09:28:00.432Z,25.20
2023-06-01T09:30:42.287Z,25.30
2023-06-01T09:33:16.418Z,25.30
2023-06-01T09:35:48.441Z,25.30
2023-06-01T09:38:23.460Z,25.20
2023-06-01T09:41:01.916Z,25.30
2023-06-01T09:43:28.968Z,25.30
2023-06-01T09:46:10.090Z,25.20
2023-06-01T09:48:37.999Z,25.20
2023-06-01T09:51:05.084Z,25.20
2023-06-01T09:53:42.514Z,25.40
2023-06-01T09:56:09.304Z,25.20
2023-06-01T09:58:40.589Z,25.30
2023-06-01T10:01:12.888Z,25.30
2023-06-01T10:03:43.997Z,25.40
2023-06-01T10:06:15.374Z,25.20
2023-06-01T10:08:43.511Z,25.20
2023-06-01T10:11:10.419Z,25.20
2023-06-01T10:13:37.670Z,25.20
2023-06-01T10:16:05.212Z,25.20
2023-06-01T10:18:33.479Z,25.20
2023-06-01T10:21:01.299Z,25.20
2023-06-01T10:23:31.758Z,25.30
2023-06-01T10:26:06.319Z,25.20
2023-06-01T10:28:36.795Z,25.20
2023-06-01T10:31:39.056Z,25.30
2023-06-01T10:34:07.946Z,25.20
2023-06-01T10:36:52.858Z,25.30
2023-06-01T10:39:27.678Z,25.20
2023-06-01T10:41:59.595Z,25.30
2023-06-01T10:44:41.463Z,25.20
2023-06-01T10:47:34.353Z,25.30
2023-06-01T10:50:02.014Z,25.30
2023-06-01T10:52:34.370Z,25.40
2023-06-01T10:55:07.254Z,25.30
2023-06-01T10:57:34.992Z,25.30
2023-06-01T11:00:29.165Z,25.20
2023-06-01T11:02:58.396Z,25.40
2023-06-01T11:05:47.887Z,25.40
2023-06-01T11:08:31.000Z,25.40
2023-06-01T11:11:03.460Z,25.40
2023-06-01T11:13:33.052Z,25.40
2023-06-01T11:16:09.256Z,25.40
2023-06-01T11:18:42.806Z,25.40
2023-06-01T11:21:22.248Z,25.40
2023-06-01T11:23:49.746Z,25.30
2023-06-01T11:26:18.370Z,25.20
2023-06-01T11:28:49.955Z,25.20
2023-06-01T11:31:18.215Z,25.20
2023-06-01T11:33:58.328Z,25.20
2023-06-01T11:36:25.818Z,25.20
2023-06-01T11:38:55.374Z,25.20
2023-06-01T11:41:26.137Z,25.00
2023-06-01T11:43:57.390Z,25.00
2023-06-01T11:46:25.079Z,25.00
2023-06-01T11:49:03.416Z,25.00
2023-06-01T11:51:32.095Z,25.00
2023-06-01T11:54:01.208Z,25.00
2023-06-01T11:56:35.745Z,25.00
2023-06-01T11:59:09.269Z,24.90
2023-06-01T12:01:39.828Z,25.00
2023-06-01T12:04:08.826Z,25.00
2023-06-01T12:06:36.979Z,25.00
2023-06-01T12:09:03.972Z,25.00
2023-06-01T12:11:31.117Z,25.10
2023-06-01T12:13:59.606Z,25.30
2023-06-01T12:16:54.288Z,25.30
2023-06-01T12:19:22.494Z,25.30
2023-06-01T12:21:54.948Z,25.30
2023-06-01T12:24:34.468Z,25.40
2023-06-01T12:27:13.596Z,25.30
2023-06-01T12:29:46.043Z,25.40
2023-06-01T12:32:16.400Z,25.40
2023-06-01T12:34:49.495Z,25.40
2023-06-01T12:37:18.141Z,25.30
2023-06-01T12:39:53.367Z,25.40
2023-06-01T12:42:20.526Z,25.50
2023-06-01T12:44:54.122Z,25.30
2023-06-01T12:47:21.082Z,25.40
2023-06-01T12:50:04.877Z,25.40
2023-06-01T12:52:31.568Z,25.40
2023-06-01T12:54:58.310Z,25.40
2023-06-01T12:57:24.961Z,25.40
2023-06-01T12:59:51.696Z,25.40
2023-06-01T13:02:18.676Z,25.60
2023-06-01T13:04:45.376Z,25.40
2023-06-01T13:07:12.868Z,25.40
2023-06-01T13:09:39.669Z,25.40
2023-06-01T13:12:06.744Z,25.40
2023-06-01T13:14:33.439Z,25.40
2023-06-01T13:17:00.455Z,25.40
2023-06-01T13:19:27.290Z,25.40
2023-06-01T13:21:53.984Z,25.50
2023-06-01T13:24:20.832Z,25.50
2023-06-01T13:26:48.002Z,25.50
2023-06-01T13:29:14.705Z,25.50
2023-06-01T13:31:41.467Z,25.60
2023-06-01T13:34:08.415Z,25.60
2023-06-01T13:36:36.130Z,25.60
2023-06-01T13:39:05.450Z,25.60
2023-06-01T13:41:32.233Z,25.60
2023-06-01T13:43:58.973Z,25.60
2023-06-01T13:46:26.197Z,25.60
2023-06-01T13:48:53.470Z,25.70
2023-06-01T13:51:20.256Z,25.60
2023-06-01T13:53:47.058Z,25.70
2023-06-01T13:56:13.743Z,25.60
2023-06-01T13:58:40.449Z,25.60
2023-06-01T14:01:07.304Z,25.70
2023-06-01T14:03:34.197Z,25.60
2023-06-01T14:06:01.073Z,25.70
2023-06-01T14:08:27.940Z,25.70
2023-06-01T14:10:54.635Z,25.60
2023-06-01T14:13:21.826Z,25.60
2023-06-01T14:15:48.709Z,25.70
2023-06-01T14:18:15.603Z,25.60
2023-06-01T14:20:42.884Z,25.70
2023-06-01T14:23:10.875Z,25.60
2023-06-01T14:25:37.619Z,25.70
2023-06-01T14:28:04.417Z,25.80
2023-06-01T14:30:31.973Z,25.80
2023-06-01T14:32:59.046Z,25.70
2023-06-01T14:35:27.331Z,25.70
2023-06-01T14:37:54.728Z,25.80
2023-06-01T14:40:21.475Z,25.80
2023-06-01T14:42:48.151Z,25.80
2023-06-01T14:45:14.995Z,25.70
2023-06-01T14:47:44.781Z,25.80
2023-06-01T14:50:12.171Z,25.80
2023-06-01T14:52:39.541Z,25.80
2023-06-01T14:55:06.721Z,25.80
2023-06-01T14:57:33.505Z,25.90
2023-06-01T15:00:04.624Z,25.80
2023-06-01T15:02:33.589Z,25.80
2023-06-01T15:05:00.361Z,25.80
2023-06-01T15:07:27.274Z,25.70
2023-06-01T15:09:54.245Z,25.50
2023-06-01T15:12:21.600Z,25.70
2023-06-01T15:14:49.216Z,25.50
2023-06-01T15:17:16.351Z,25.40
2023-06-01T15:19:43.439Z,25.40
2023-06-01T15:22:10.697Z,25.50
2023-06-01T15:24:38.642Z,25.30
2023-06-01T15:27:06.942Z,25.30
2023-06-01T15:29:34.547Z,25.30
2023-06-01T15:32:01.237Z,25.40
2023-06-01T15:34:27.990Z,25.30
2023-06-01T15:36:56.309Z,25.60
2023-06-01T15:39:23.237Z,25.30
2023-06-01T15:41:57.283Z,25.40
2023-06-01T15:44:24.875Z,25.40
2023-06-01T15:46:52.018Z,25.40
2023-06-01T15:49:19.294Z,25.50
2023-06-01T15:51:45.950Z,25.50
2023-06-01T15:54:12.645Z,25.60
2023-06-01T15:56:39.404Z,25.60
2023-06-01T15:59:06.140Z,25.60
2023-06-01T16:01:33.238Z,25.70
2023-06-01T16:04:00.345Z,25.60
2023-06-01T16:06:27.369Z,25.60
2023-06-01T16:08:54.566Z,25.70
2023-06-01T16:11:21.617Z,25.60
2023-06-01T16:13:48.320Z,25.70
2023-06-01T16:16:16.596Z,25.60
2023-06-01T16:18:43.654Z,25.70
2023-06-01T16:21:10.450Z,25.70
2023-06-01T16:23:37.442Z,25.70
2023-06-01T16:26:04.162Z,25.80
2023-06-01T16:28:30.893Z,25.80
2023-06-01T16:30:57.605Z,25.70
2023-06-01T16:33:24.281Z,25.70
2023-06-01T16:35:50.994Z,25.70
2023-06-01T16:38:17.751Z,25.70
2023-06-01T16:40:44.488Z,25.80
2023-06-01T16:43:13.919Z,25.80
2023-06-01T16:45:41.076Z,25.80
2023-06-01T16:48:08.122Z,25.80
2023-06-01T16:50:35.137Z,25.70
2023-06-01T16:53:01.856Z,25.80
2023-06-01T16:55:29.027Z,25.80
2023-06-01T16:57:55.915Z,25.80
2023-06-01T17:00:22.669Z,25.80
2023-06-01T17:02:49.571Z,25.90
2023-06-01T17:05:16.416Z,25.80
2023-06-01T17:07:43.114Z,25.90
2023-06-01T17:10:10.363Z,25.80
2023-06-01T17:12:37.117Z,25.90
2023-06-01T17:15:05.088Z,25.80
2023-06-01T17:17:33.314Z,25.90
2023-06-01T17:20:00.404Z,25.90
2023-06-01T17:22:27.994Z,25.90
2023-06-01T17:24:54.700Z,25.90
2023-06-01T17:27:21.477Z,25.80
2023-06-01T17:29:48.286Z,25.90
2023-06-01T17:32:15.240Z,25.80
2023-06-01T17:34:42.664Z,25.90
2023-06-01T17:37:09.415Z,25.80
2023-06-01T17:39:36.163Z,25.90
2023-06-01T17:42:03.014Z,25.90
2023-06-01T17:44:29.737Z,25.80
2023-06-01T17:46:56.693Z,26.00
2023-06-01T17:49:42.192Z,25.80
2023-06-01T17:52:08.869Z,25.90
2023-06-01T17:54:35.564Z,25.90
2023-06-01T17:57:02.262Z,25.90
2023-06-01T17:59:28.951Z,25.90
2023-06-01T18:01:55.673Z,25.90
2023-06-01T18:04:22.484Z,26.00
2023-06-01T18:06:49.193Z,26.00
2023-06-01T18:09:16.033Z,25.90
2023-06-01T18:11:42.787Z,25.90
2023-06-01T18:14:09.574Z,25.90
2023-06-01T18:16:36.433Z,25.90
2023-06-01T18:19:03.339Z,25.90
2023-06-01T18:21:30.234Z,25.80
2023-06-01T18:23:56.924Z,26.00
2023-06-01T18:26:23.609Z,25.90
2023-06-01T18:28:50.323Z,25.90
2023-06-01T18:31:17.098Z,25.90
2023-06-01T18:33:43.949Z,25.80
2023-06-01T18:36:10.822Z,25.70
2023-06-01T18:38:38.953Z,25.60
2023-06-01T18:41:05.701Z,25.60
2023-06-01T18:43:32.413Z,25.60
2023-06-01T18:45:59.156Z,25.60
2023-06-01T18:48:25.952Z,25.50
2023-06-01T18:50:54.237Z,25.50
2023-06-01T18:53:21.079Z,25.40
2023-06-01T18:55:48.607Z,25.40
2023-06-01T18:58:16.379Z,25.40
2023-06-01T19:00:47.519Z,25.30
2023-06-01T19:03:18.013Z,25.30
2023-06-01T19:05:44.784Z,25.20
2023-06-01T19:08:22.092Z,25.20
2023-06-01T19:11:00.000Z,25.20
2023-06-01T19:13:37.749Z,25.20
2023-06-01T19:16:18.087Z,25.20
2023-06-01T19:18:49.555Z,25.10
2023-06-01T19:21:22.465Z,25.00
2023-06-01T19:23:50.940Z,25.00
2023-06-01T19:26:22.790Z,25.00
2023-06-01T19:28:52.646Z,24.90
2023-06-01T19:31:26.666Z,24.90
2023-06-01T19:33:53.627Z,24.90
2023-06-01T19:36:42.568Z,24.80
2023-06-01T19:39:32.361Z,24.80
2023-06-01T19:42:01.141Z,24.80
2023-06-01T19:44:30.610Z,24.70
2023-06-01T19:46:58.280Z,24.70
2023-06-01T19:49:25.050Z,24.60
2023-06-01T19:51:53.133Z,24.60
2023-06-01T19:54:24.813Z,24.60
2023-06-01T19:56:57.127Z,24.50
2023-06-01T19:59:25.987Z,24.60
2023-06-01T20:01:54.658Z,24.50
2023-06-01T20:04:21.792Z,24.50
2023-06-01T20:06:50.778Z,24.50
2023-06-01T20:09:21.891Z,24.80
2023-06-01T20:11:51.041Z,24.80
2023-06-01T20:14:29.854Z,24.80
2023-06-01T20:17:01.760Z,24.80
2023-06-01T20:19:29.919Z,24.90
2023-06-01T20:21:59.310Z,25.00
2023-06-01T20:24:28.860Z,24.90
2023-06-01T20:27:00.554Z,25.00
2023-06-01T20:29:29.633Z,25.00
2023-06-01T20:31:58.475Z,25.00
2023-06-01T20:34:27.031Z,25.00
2023-06-01T20:36:53.933Z,25.00
2023-06-01T20:39:22.204Z,25.00
2023-06-01T20:41:49.558Z,25.00
2023-06-01T20:44:18.661Z,25.00
2023-06-01T20:46:46.699Z,25.10
2023-06-01T20:49:13.369Z,25.00
2023-06-01T20:51:42.017Z,25.00
2023-06-01T20:54:16.105Z,25.00
2023-06-01T20:57:01.122Z,25.00
2023-06-01T20:59:32.831Z,24.90
2023-06-01T21:02:05.078Z,24.90
2023-06-01T21:04:36.020Z,24.90
2023-06-01T21:07:05.145Z,24.80
2023-06-01T21:09:32.044Z,24.90
2023-06-01T21:11:59.413Z,24.90
2023-06-01T21:14:26.627Z,24.90
2023-06-01T21:16:53.708Z,24.80
2023-06-01T21:19:20.940Z,24.90
2023-06-01T21:21:47.876Z,24.90
2023-06-01T21:24:14.855Z,25.00
2023-06-01T21:26:41.766Z,25.00
2023-06-01T21:29:11.803Z,24.90
2023-06-01T21:31:39.036Z,24.80
2023-06-01T21:34:06.083Z,24.80
2023-06-01T21:36:33.014Z,24.80
2023-06-01T21:39:00.068Z,24.80
2023-06-01T21:41:27.644Z,24.70
2023-06-01T21:43:54.739Z,24.80
2023-06-01T21:46:21.645Z,24.80
2023-06-01T21:48:48.693Z,24.80
2023-06-01T21:51:15.758Z,24.80
2023-06-01T21:53:42.659Z,24.60
2023-06-01T21:56:09.599Z,24.80
2023-06-01T21:58:38.892Z,24.80
2023-06-01T22:01:06.834Z,24.80
2023-06-01T22:03:34.219Z,24.80
2023-06-01T22:06:01.597Z,24.70
2023-06-01T22:08:28.671Z,24.80
2023-06-01T22:10:55.759Z,24.80
2023-06-01T22:13:22.717Z,24.80
2023-06-01T22:15:49.572Z,24.90
2023-06-01T22:18:16.447Z,24.90
2023-06-01T22:20:43.260Z,24.90
2023-06-01T22:23:10.764Z,24.80
2023-06-01T22:25:38.780Z,25.00
2023-06-01T22:28:06.422Z,25.00
2023-06-01T22:30:33.714Z,24.90
2023-06-01T22:33:01.585Z,24.90
2023-06-01T22:35:28.782Z,25.00
2023-06-01T22:37:55.962Z,24.90
2023-06-01T22:40:22.867Z,24.90
2023-06-01T22:42:52.152Z,25.00
2023-06-01T22:45:20.585Z,24.90
2023-06-01T22:47:49.538Z,24.90
2023-06-01T22:50:19.757Z,25.00
2023-06-01T22:52:47.597Z,24.90
2023-06-01T22:55:14.501Z,24.90
2023-06-01T22:57:41.404Z,24.90
2023-06-01T23:00:08.758Z,24.90
2023-06-01T23:02:35.738Z,24.90
2023-06-01T23:05:04.633Z,25.00
2023-06-01T23:07:32.515Z,24.90
2023-06-01T23:10:00.667Z,24.90
2023-06-01T23:12:28.809Z,24.90
2023-06-01T23:14:56.431Z,24.80
2023-06-01T23:17:27.773Z,24.60
2023-06-01T23:19:54.786Z,24.60
2023-06-01T23:22:25.628Z,24.60
2023-06-01T23:24:52.633Z,24.60
2023-06-01T23:27:19.597Z,24.50
2023-06-01T23:29:46.351Z,24.50
2023-06-01T23:32:13.054Z,24.60
2023-06-01T23:34:39.692Z,24.40
2023-06-01T23:37:06.818Z,24.40
2023-06-01T23:39:33.696Z,24.40
2023-06-01T23:42:00.437Z,24.60
2023-06-01T23:44:27.273Z,24.50
2023-06-01T23:46:53.986Z,24.60
2023-06-01T23:49:20.740Z,24.60
2023-06-01T23:51:47.440Z,24.70
2023-06-01T23:54:14.428Z,24.70
2023-06-01T23:56:41.348Z,24.70
2023-06-01T23:59:08.135Z,24.70
